Sylvan Grove, Kansas
Current Conditions -  °F | °C
As of 4:53 PM on Saturday 22 Nov 2014 (Local Time) from KRSL Reporting Station
Clear Clear  
Wind Chill: 60°   Ceiling: Unl
Heat Index: 60°   Visibility: 10mi
Dew Point: 49°   Wind: 17mph
Humidity: 67%   Direction: 180°S
Pressure: 29.61"   Gusts: NA
Location:  39.01°N, 98.39°W
Report Text: KRSL 222253Z AUTO 18015KT 10SM CLR 16/09 A2961 RMK AO2 SLP029 T01560094
Loading
Personal Weather Stations






























Interactive Weather Map New forecast layout! Learn more

10-Day Weather Forecast

Advertisements
Track Severe Weather on mobile